Gladstone Airport
YGLA : now visible

Aeroporto :











RITROVATECI SU...

 
LOGIN :

Iscrizione | Disclaimer

   EN    FR    IT 

 









Sommario :    VFR   VFR Marginale   IFR   IFR Intensivo   IFR Molto Intensivo
Visibilità : 
Base nubi : 
>= 8 km
>= 3000ft
5 / 8 km
1000 / 3000 ft
1500m / 5 km
500 / 1000 ft
800 / 1500m
200 / 500 ft
< 800m
< 200 ft
Simboli :   Temporali  Nebbia  Neve Forte  Precipitazioni Forti  Vento > 20 kt






- Altitudine del aeroporto : 64 ft
- Codice IATA : GLT


YGLA - Gladstone

ULTIMO METAR :
  • 311930Z AUTO 21003KT 9999 // SCT027 OVC071 17/14 Q1018

METARs OBSOLETI :
  • 311900Z AUTO 17003KT 9999 // SCT022 17/14 Q1018
  • 311830Z AUTO 18004KT 9999 // NCD 17/14 Q1017 RF00.0/000.0
  • 311800Z AUTO 18002KT 9999 // BKN067 18/14 Q1017 RF00.0/000.0
  • 311730Z AUTO 21005KT 9999 // OVC067 18/14 Q1018 RF00.0/000.0
  • 311700Z AUTO 22005KT 9999 // OVC067 18/14 Q1018 RF00.0/000.0

TAF TAF YGLA
Valido dal 31 a 18 ore il 01 a 06 ore UTC


311715Z 3118/0106 20005KT 9999 SCT025
FM010000 02007KT 9999 FEW040
FIR YBBB / Oceania



MetMap, La meteo Aeronautica in un colpo d'occhio ! - Copyright ORBIFLY Dicembre 2007 - Disclaimer

ORBIFLY MET'MAP TEAM :

Programmazione e sviluppo : Alexandra Zaïnal
Concezione : Baudouin d'Aumeries
Aiuto per la programmazione : Marc-Olivier Méhu
Supporto tecnico e logistico : Manuel Goepfert
Aiuto per la traduzione : Arnaldo La Scala

Contatto : metmap@orbifly.com




FONTI E CREDITI :

   NOAA       Earth
Advisory